^^
Grace C. Lehan Memorial Weather Station Historical Data
Daily Summary for January 17, 2022 Units:  Metric    English   Both
Daily Weekly Monthly Yearly
  High: Low: Average:
Temperature: 7.1 °C -3.7 °C 2.7 °C
Dew Point: 6.4 °C -5.4 °C 1.1 °C
Humidity: 96% 71% 89%
Wind Speed: 17.4km/h 0km/h 4.2km/h
Wind Gust: 38.6km/h - -
Wind- - South
Pressure: 1012.1 hPa 982.3 hPa -
Precipitation: 3.56 mm    
 
 
Tabular Data for January 17, 2022
Time Temperature Dew Point Pressure Wind Wind Speed Wind Gust Humidity Rainfall Rate (Hourly) solar
00:04 -3.7 °C -5.4 °C 1012.1 hPa NNW 3.1 km/h 16.1 km/h 88% 0 mm 0 W/m2
00:09 -3.7 °C -5.3 °C 1011.7 hPa NNW 2.6 km/h 9.7 km/h 88% 0 mm 0 W/m2
00:14 -3.6 °C -5.2 °C 1011.4 hPa NNW 3.1 km/h 9.7 km/h 88.8% 0 mm 0 W/m2
00:19 -3.5 °C -5.1 °C 1011.1 hPa NNW 4.7 km/h 11.3 km/h 89% 0 mm 0 W/m2
00:24 -3.4 °C -5 °C 1010.7 hPa NNW 4.2 km/h 11.3 km/h 89% 0 mm 0 W/m2
00:29 -3.3 °C -4.9 °C 1010.7 hPa North 3.5 km/h 11.3 km/h 89% 0 mm 0 W/m2
00:34 -3.3 °C -4.8 °C 1010.4 hPa NNW 2.9 km/h 11.3 km/h 89% 0 mm 0 W/m2
00:39 -3.2 °C -4.8 °C 1010 hPa North 3.2 km/h 8 km/h 89% 0 mm 0 W/m2
00:44 -3.2 °C -4.7 °C 1009.7 hPa North 4.7 km/h 11.3 km/h 89.1% 0 mm 0 W/m2
00:49 -3.1 °C -4.5 °C 1009.4 hPa North 1.6 km/h 11.3 km/h 90% 0 mm 0 W/m2
00:54 -3.1 °C -4.4 °C 1009 hPa NNW 3.1 km/h 11.3 km/h 90% 0 mm 0 W/m2
00:59 -3 °C -4.4 °C 1009 hPa North 3.1 km/h 11.3 km/h 90% 0 mm 0 W/m2
01:04 -2.9 °C -4.3 °C 1008.7 hPa North 3.2 km/h 11.3 km/h 90% 0 mm 0 W/m2
01:09 -2.8 °C -4.2 °C 1008 hPa NE 2.1 km/h 11.3 km/h 90.1% 0 mm 0 W/m2
01:14 -2.7 °C -3.9 °C 1007.7 hPa NNE 3.7 km/h 11.3 km/h 91% 0 mm 0 W/m2
01:19 -2.6 °C -3.8 °C 1007.3 hPa NNE 1.8 km/h 11.3 km/h 91% 0 mm 0 W/m2
01:24 -2.4 °C -3.7 °C 1007.3 hPa NNE 2.6 km/h 11.3 km/h 91% 0 mm 0 W/m2
01:29 -2.3 °C -3.6 °C 1007 hPa NNE 3.1 km/h 11.3 km/h 91% 0 mm 0 W/m2
01:34 -2.2 °C -3.4 °C 1007 hPa NE 3.5 km/h 14.5 km/h 91.4% 0 mm 0 W/m2
01:39 -1.9 °C -3 °C 1006.7 hPa NE 3.2 km/h 14.5 km/h 92% 0 mm 0 W/m2
01:44 -1.6 °C -2.8 °C 1006 hPa NE 6.6 km/h 17.7 km/h 92% 0 mm 0 W/m2
01:49 -1.2 °C -2.2 °C 1005.6 hPa NE 4.8 km/h 17.7 km/h 93% 0 mm 0 W/m2
01:54 -0.9 °C -1.9 °C 1005.6 hPa NE 4 km/h 20.9 km/h 93% 0 mm 0 W/m2
01:59 -0.7 °C -1.6 °C 1005.6 hPa NE 6.8 km/h 20.9 km/h 93% 0 mm 0 W/m2
02:04 -0.4 °C -1.4 °C 1005 hPa NE 7.1 km/h 20.9 km/h 93% 0 mm 0 W/m2
02:09 -0.2 °C -1.2 °C 1005 hPa NE 5.5 km/h 24.1 km/h 93% 0 mm 0 W/m2
02:14 -0.1 °C -1.1 °C 1004.6 hPa NE 6.3 km/h 24.1 km/h 93% 0 mm 0 W/m2
02:19 0.1 °C -0.9 °C 1004.3 hPa NE 6.3 km/h 24.1 km/h 93% 0 mm 0 W/m2
02:24 0.2 °C -0.8 °C 1004.3 hPa NE 5.6 km/h 24.1 km/h 93% 0 mm 0 W/m2
02:29 0.3 °C -0.7 °C 1004.3 hPa NE 6.1 km/h 24.1 km/h 92.8% 0 mm 0 W/m2
02:34 0.4 °C -0.7 °C 1003.6 hPa NE 4.3 km/h 24.1 km/h 92% 0 mm 0 W/m2
02:39 0.5 °C -0.6 °C 1003.3 hPa NNE 4.8 km/h 17.7 km/h 92% 0 mm 0 W/m2
02:44 0.6 °C -0.6 °C 1003.3 hPa NE 5.5 km/h 17.7 km/h 92% 0 mm 0 W/m2
02:49 0.7 °C -0.5 °C 1002.9 hPa ENE 3.4 km/h 17.7 km/h 92% 0 mm 0 W/m2
02:54 0.7 °C -0.4 °C 1002.6 hPa NE 5.8 km/h 17.7 km/h 92% 0 mm 0 W/m2
02:59 0.8 °C -0.4 °C 1001.9 hPa ENE 6.3 km/h 17.7 km/h 92% 0 mm 0 W/m2
03:04 0.8 °C -0.3 °C 1001.9 hPa ENE 7.4 km/h 17.7 km/h 92% 0 mm 0 W/m2
03:09 0.9 °C -0.2 °C 1001.6 hPa NE 7.2 km/h 20.9 km/h 92.4% 0 mm 0 W/m2
03:14 0.9 °C -0.1 °C 1001.2 hPa NE 6.8 km/h 20.9 km/h 93% 0 mm 0 W/m2
03:19 0.9 °C -0.1 °C 1000.6 hPa NE 7.7 km/h 20.9 km/h 93% 0 mm 0 W/m2
03:24 1 °C 0 °C 1000.2 hPa NE 7.2 km/h 20.9 km/h 93% 0 mm 0 W/m2
03:29 1.1 °C 0.1 °C 999.9 hPa NE 6.9 km/h 20.9 km/h 93% 0 mm 0 W/m2
03:34 1.1 °C 0.1 °C 999.9 hPa ENE 10 km/h 22.5 km/h 93% 0 mm 0 W/m2
03:39 1.2 °C 0.2 °C 999.2 hPa ENE 8.7 km/h 22.5 km/h 93% 0 mm 0 W/m2
03:44 1.2 °C 0.2 °C 998.9 hPa NE 10.6 km/h 22.5 km/h 93% 0 mm 0 W/m2
03:49 1.3 °C 0.3 °C 998.5 hPa NE 6.6 km/h 22.5 km/h 93% 0 mm 0 W/m2
03:54 1.3 °C 0.3 °C 997.9 hPa NE 8.4 km/h 22.5 km/h 93% 0 mm 0 W/m2
03:59 1.3 °C 0.3 °C 997.5 hPa NE 10.9 km/h 24.1 km/h 93% 0 mm 0 W/m2
04:00 1.4 °C 0.4 °C 997.2 hPa ENE 12.9 km/h 24.1 km/h 93% 0 mm 0 W/m2
04:09 1.6 °C 0.7 °C 996.5 hPa ENE 12.1 km/h 27.4 km/h 93.7% 0 mm 0 W/m2
04:14 1.7 °C 0.8 °C 996.2 hPa ENE 15 km/h 38.6 km/h 93.9% 0 mm 0 W/m2
04:19 1.8 °C 1 °C 995.8 hPa ENE 12.2 km/h 38.6 km/h 93.9% 0 mm 0 W/m2
04:24 2 °C 1.1 °C 995.8 hPa ENE 14.6 km/h 38.6 km/h 93.5% 0 mm 0 W/m2
04:29 2.2 °C 1.2 °C 995.5 hPa ENE 11.6 km/h 38.6 km/h 93% 0 mm 0 W/m2
04:34 2.3 °C 1.3 °C 994.5 hPa ENE 13.8 km/h 38.6 km/h 93% 0 mm 0 W/m2
04:39 2.4 °C 1.4 °C 994.1 hPa ENE 15.6 km/h 38.6 km/h 93% 0 mm 0 W/m2
04:44 2.6 °C 1.6 °C 994.1 hPa ENE 10.6 km/h 38.6 km/h 93% 0 mm 0 W/m2
04:49 2.7 °C 1.7 °C 993.8 hPa ENE 13.2 km/h 38.6 km/h 93% 0.25 mm 0 W/m2
04:54 2.8 °C 1.8 °C 993.8 hPa ENE 12.6 km/h 38.6 km/h 93% 0.25 mm 0 W/m2
04:59 2.9 °C 1.9 °C 993.1 hPa ENE 14.3 km/h 38.6 km/h 93% 0.25 mm 0 W/m2
05:04 3.1 °C 2 °C 992.8 hPa ENE 17.4 km/h 38.6 km/h 93% 0.25 mm 0 W/m2
05:09 3.2 °C 2.1 °C 992.4 hPa ENE 11.9 km/h 37 km/h 92.3% 0.25 mm 0 W/m2
05:14 3.2 °C 2 °C 992.4 hPa ENE 8.7 km/h 37 km/h 92% 0.25 mm 0 W/m2
05:19 3.2 °C 2 °C 992.1 hPa ENE 6.3 km/h 37 km/h 92% 0.25 mm 0 W/m2
05:24 3.2 °C 2 °C 992.1 hPa ENE 8.4 km/h 37 km/h 92% 0.25 mm 0 W/m2
05:29 3.2 °C 2 °C 992.1 hPa NE 5.5 km/h 37 km/h 92% 0.25 mm 0 W/m2
05:34 3.2 °C 2 °C 991.8 hPa NE 5.6 km/h 37 km/h 92% 0.25 mm 0 W/m2
05:39 3.2 °C 2 °C 991.4 hPa East 1.1 km/h 14.5 km/h 92% 0.25 mm 0 W/m2
05:44 3.2 °C 2 °C 991.4 hPa NE 1.6 km/h 14.5 km/h 92% 0.25 mm 0 W/m2
05:49 3.2 °C 2 °C 990.7 hPa NE 3.1 km/h 14.5 km/h 92% 0.25 mm 0 W/m2
05:54 3.1 °C 1.9 °C 990.4 hPa NE 3.4 km/h 14.5 km/h 92% 0.25 mm 0 W/m2
05:59 3.1 °C 2.1 °C 990.4 hPa NE 4.5 km/h 14.5 km/h 92.7% 0.25 mm 0 W/m2
06:04 3.2 °C 2.1 °C 989.7 hPa NE 5.3 km/h 14.5 km/h 93% 0.25 mm 0 W/m2
06:09 3.2 °C 2.1 °C 989.4 hPa NE 6.3 km/h 14.5 km/h 93% 0 mm 0 W/m2
06:14 3.1 °C 2.1 °C 989.1 hPa NE 3.1 km/h 14.5 km/h 93% 0 mm 0 W/m2
06:19 3.2 °C 2.1 °C 989.4 hPa NE 2.4 km/h 14.5 km/h 93% 0 mm 0 W/m2
06:24 3.2 °C 2.3 °C 989.1 hPa NE 4.8 km/h 16.1 km/h 93.5% 0 mm 0 W/m2
06:29 3.3 °C 2.5 °C 988.7 hPa NE 2.7 km/h 16.1 km/h 94% 0 mm 0 W/m2
06:34 3.4 °C 2.6 °C 988.7 hPa ENE 5.5 km/h 16.1 km/h 94% 0 mm 0 W/m2
06:39 3.5 °C 2.6 °C 988.4 hPa NE 2.7 km/h 11.3 km/h 94% 0 mm 0 W/m2
06:44 3.6 °C 2.7 °C 988.4 hPa Calm   11.3 km/h 94% 0 mm 0 W/m2
06:49 3.6 °C 2.7 °C 988.4 hPa NE 1.4 km/h 11.3 km/h 94% 0 mm 0 W/m2
06:54 3.6 °C 2.7 °C 988 hPa NE 0.2 km/h 11.3 km/h 94% 0 mm 0 W/m2
06:59 3.6 °C 2.7 °C 987.7 hPa Calm   11.3 km/h 94% 0 mm 0 W/m2
07:04 3.6 °C 2.7 °C 987.4 hPa Calm   11.3 km/h 94% 0 mm 0 W/m2
07:09 3.6 °C 2.7 °C 987.7 hPa Calm     94% 0 mm 0 W/m2
07:14 3.7 °C 2.8 °C 987.4 hPa Calm     94% 0 mm 0 W/m2
07:19 3.7 °C 2.8 °C 987.4 hPa Calm     94% 0 mm 0 W/m2
07:24 3.7 °C 2.8 °C 987 hPa Calm     94% 0 mm 0 W/m2
07:29 3.7 °C 2.8 °C 986.7 hPa Calm     94% 0 mm 0 W/m2
07:34 3.6 °C 2.7 °C 986.7 hPa NE 0.6 km/h 6.4 km/h 94% 0 mm 0 W/m2
07:39 3.7 °C 2.8 °C 986.7 hPa Calm   6.4 km/h 94% 0 mm 0 W/m2
07:44 3.9 °C 3.2 °C 986.7 hPa Calm   6.4 km/h 94.9% 0 mm 0 W/m2
07:49 4.1 °C 3.4 °C 986.7 hPa Calm   6.4 km/h 95% 0 mm 0 W/m2
07:54 4.3 °C 3.6 °C 986.7 hPa Calm   6.4 km/h 95% 0 mm 0 W/m2
07:59 4.4 °C 3.7 °C 986.7 hPa Calm   6.4 km/h 95% 0 mm 0 W/m2
08:00 4.4 °C 3.7 °C 986.7 hPa Calm   6.4 km/h 95% 0 mm 0 W/m2
08:09 4.8 °C 4.1 °C 986.3 hPa Calm     95% 0 mm 9 W/m2
08:14 5.3 °C 4.6 °C 986.3 hPa Calm     95.3% 0 mm 11 W/m2
08:19 5.6 °C 4.9 °C 986.3 hPa ENE 0.2 km/h 1.6 km/h 95.5% 0 mm 21 W/m2
08:24 5.9 °C 5.3 °C 986 hPa Calm   1.6 km/h 95.9% 0 mm 65 W/m2
08:29 6.2 °C 5.6 °C 986 hPa Calm   1.6 km/h 96% 0 mm 79 W/m2
08:34 6.4 °C 5.8 °C 985.7 hPa ENE 0.2 km/h 3.2 km/h 96% 0 mm 60 W/m2
08:39 6.6 °C 5.9 °C 985.7 hPa ENE 0.2 km/h 3.2 km/h 96% 0 mm 60 W/m2
08:44 6.6 °C 6 °C 985.7 hPa Calm   3.2 km/h 95.8% 0 mm 104 W/m2
08:49 6.7 °C 6.1 °C 985.3 hPa ENE 0.2 km/h 3.2 km/h 95.4% 0 mm 93 W/m2
08:54 6.9 °C 6.3 °C 985 hPa ENE 0.5 km/h 3.2 km/h 96% 0 mm 114 W/m2
08:59 7 °C 6.4 °C 985 hPa ENE 0.2 km/h 3.2 km/h 96% 0 mm 77 W/m2
09:04 7.1 °C 6.3 °C 985 hPa Calm   3.2 km/h 95.2% 0 mm 23 W/m2
09:09 7 °C 6.3 °C 985 hPa ENE 1.1 km/h 6.4 km/h 95% 0 mm 63 W/m2
09:14 7 °C 6.3 °C 984.6 hPa ENE 1.3 km/h 6.4 km/h 95% 0 mm 63 W/m2
09:19 7 °C 6.3 °C 984.6 hPa SE 3.4 km/h 9.7 km/h 95% 0 mm 44 W/m2
09:24 7 °C 6.3 °C 984.6 hPa South 5.8 km/h 20.9 km/h 95% 0 mm 32 W/m2
09:29 6.9 °C 6.2 °C 984.3 hPa South 4.7 km/h 20.9 km/h 95% 0 mm 18 W/m2
09:34 6.9 °C 6.1 °C 984.6 hPa SSW 9.5 km/h 25.7 km/h 95% 0.51 mm 9 W/m2
09:39 6.6 °C 5.7 °C 984.6 hPa SSW 6.8 km/h 25.7 km/h 94% 0.76 mm 14 W/m2
09:44 6.4 °C 5.4 °C 984.6 hPa SW 6.1 km/h 25.7 km/h 94% 1.02 mm 30 W/m2
09:49 6.1 °C 5.1 °C 984.6 hPa SW 4.8 km/h 25.7 km/h 93.2% 1.27 mm 35 W/m2
09:54 5.9 °C 4.9 °C 984.6 hPa SW 6 km/h 25.7 km/h 93% 1.27 mm 35 W/m2
09:59 5.8 °C 4.7 °C 984.3 hPa SW 6 km/h 25.7 km/h 93% 1.78 mm 21 W/m2
10:04 5.6 °C 4.6 °C 984.3 hPa SSW 4 km/h 25.7 km/h 93% 2.03 mm 30 W/m2
10:09 5.4 °C 4.4 °C 984.3 hPa SSW 3.9 km/h 16.1 km/h 93% 2.03 mm 26 W/m2
10:14 5.3 °C 4.3 °C 984.3 hPa SW 1.6 km/h 16.1 km/h 93% 2.29 mm 21 W/m2
10:19 5.2 °C 4.2 °C 984.3 hPa SW 3.4 km/h 19.3 km/h 93% 2.54 mm 60 W/m2
10:24 5.2 °C 4.1 °C 984.3 hPa SW 3.5 km/h 19.3 km/h 93% 2.54 mm 104 W/m2
10:29 5.2 °C 4.1 °C 984.3 hPa SW 2.6 km/h 19.3 km/h 93% 2.54 mm 146 W/m2
10:34 5.2 °C 4.3 °C 984 hPa SW 5.5 km/h 19.3 km/h 93.9% 2.54 mm 128 W/m2
10:39 5.2 °C 4.2 °C 984 hPa SSW 4 km/h 20.9 km/h 93.8% 2.54 mm 116 W/m2
10:44 5.1 °C 4.1 °C 984 hPa SSW 2.9 km/h 20.9 km/h 93% 2.54 mm 413 W/m2
10:49 5.3 °C 4.4 °C 983.6 hPa SW 1.4 km/h 20.9 km/h 93.8% 2.54 mm 455 W/m2
10:54 5.6 °C 4.7 °C 983.6 hPa SSW 1.8 km/h 20.9 km/h 94% 2.54 mm 478 W/m2
10:59 5.8 °C 4.9 °C 983.6 hPa SSW 1.4 km/h 20.9 km/h 94% 2.54 mm 478 W/m2
11:04 5.9 °C 5 °C 983.6 hPa South 3.4 km/h 20.9 km/h 93.8% 2.54 mm 434 W/m2
11:09 5.8 °C 4.8 °C 983.6 hPa South 1.6 km/h 17.7 km/h 93% 0.76 mm 160 W/m2
11:14 5.7 °C 4.6 °C 983.6 hPa SSW 3.9 km/h 17.7 km/h 92.8% 1.02 mm 104 W/m2
11:19 5.4 °C 4.2 °C 983.3 hPa SSW 3.4 km/h 17.7 km/h 92% 1.27 mm 137 W/m2
11:24 5.2 °C 4.1 °C 983.3 hPa SSW 2.9 km/h 17.7 km/h 92% 1.27 mm 221 W/m2
11:29 5.3 °C 4.2 °C 983.3 hPa SW 2.3 km/h 17.7 km/h 92.4% 1.27 mm 197 W/m2
11:34 5.4 °C 4.4 °C 983 hPa SW 2.9 km/h 17.7 km/h 93% 1.27 mm 322 W/m2
11:39 5.5 °C 4.5 °C 983 hPa SSW 2.9 km/h 14.5 km/h 93% 0.51 mm 374 W/m2
11:44 5.7 °C 4.7 °C 982.6 hPa SSW 3.4 km/h 14.5 km/h 93% 0.51 mm 188 W/m2
11:49 5.7 °C 4.6 °C 983 hPa SSW 9.3 km/h 24.1 km/h 91.9% 0.51 mm 167 W/m2
11:54 5.6 °C 4 °C 983.6 hPa SSW 4.8 km/h 24.1 km/h 89.4% 0.51 mm 172 W/m2
11:59 5.6 °C 3.7 °C 984 hPa SSW 4.7 km/h 24.1 km/h 88% 0.51 mm 102 W/m2
12:00 5.5 °C 3.7 °C 984 hPa SW 1.6 km/h 24.1 km/h 88% 0.51 mm 65 W/m2
12:09 5.3 °C 3.2 °C 983.3 hPa SW 6.9 km/h 24.1 km/h 86.1% 0.51 mm 142 W/m2
12:14 5.2 °C 2.9 °C 983.3 hPa SW 8.4 km/h 24.1 km/h 85% 0.51 mm 142 W/m2
12:19 5.1 °C 2.6 °C 982.6 hPa SW 6.8 km/h 24.1 km/h 84.1% 0.51 mm 185 W/m2
12:24 5.1 °C 2.6 °C 982.6 hPa SW 6.4 km/h 24.1 km/h 84% 0.51 mm 185 W/m2
12:29 5.1 °C 2.6 °C 982.6 hPa SW 4.7 km/h 24.1 km/h 84% 0.51 mm 153 W/m2
12:34 5.1 °C 2.6 °C 982.6 hPa SW 3.9 km/h 24.1 km/h 84% 0.51 mm 130 W/m2
12:39 5 °C 2.5 °C 982.6 hPa SSW 3.9 km/h 14.5 km/h 84% 0 mm 142 W/m2
12:44 5 °C 2.4 °C 982.6 hPa SSW 2.1 km/h 14.5 km/h 83.3% 0 mm 93 W/m2
12:49 4.9 °C 2.4 °C 982.3 hPa SW 5.3 km/h 20.9 km/h 83.6% 0 mm 62 W/m2
12:54 4.9 °C 2.3 °C 982.3 hPa SSW 3.1 km/h 20.9 km/h 83% 0 mm 47 W/m2
12:59 4.9 °C 2.2 °C 982.3 hPa SSW 2.7 km/h 20.9 km/h 83% 0 mm 49 W/m2
13:04 4.8 °C 2.3 °C 982.3 hPa SSW 2.9 km/h 20.9 km/h 83.8% 0 mm 67 W/m2
13:09 4.8 °C 2.3 °C 982.3 hPa SW 3.9 km/h 16.1 km/h 84% 0 mm 102 W/m2
13:14 4.8 °C 2.3 °C 982.3 hPa SW 8.5 km/h 20.9 km/h 84% 0 mm 98 W/m2
13:19 4.8 °C 2.1 °C 982.3 hPa SW 3.9 km/h 20.9 km/h 83.1% 0 mm 69 W/m2
13:24 4.7 °C 2.1 °C 982.3 hPa SW 4.3 km/h 20.9 km/h 83% 0 mm 58 W/m2
13:29 4.7 °C 1.9 °C 982.3 hPa SW 4 km/h 20.9 km/h 82.4% 0 mm 46 W/m2
13:34 4.7 °C 1.9 °C 982.3 hPa SW 4.8 km/h 20.9 km/h 82.3% 0 mm 51 W/m2
13:39 4.7 °C 2 °C 982.3 hPa SW 5.8 km/h 20.9 km/h 83% 0 mm 54 W/m2
13:44 4.6 °C 2 °C 982.6 hPa SSW 5.6 km/h 20.9 km/h 83% 0 mm 54 W/m2
13:49 4.5 °C 1.9 °C 983 hPa SW 7.1 km/h 20.9 km/h 83.4% 0 mm 60 W/m2
13:54 4.4 °C 1.9 °C 983 hPa SW 6.9 km/h 20.9 km/h 84% 0 mm 49 W/m2
13:59 4.3 °C 2 °C 983 hPa SW 7.1 km/h 22.5 km/h 84.9% 0 mm 54 W/m2
14:04 4.3 °C 1.8 °C 983 hPa SW 4.2 km/h 22.5 km/h 84.1% 0 mm 42 W/m2
14:09 4.2 °C 1.9 °C 983 hPa SW 3.2 km/h 14.5 km/h 84.8% 0 mm 35 W/m2
14:14 4.2 °C 1.9 °C 983.3 hPa SSW 5.3 km/h 16.1 km/h 85% 0 mm 63 W/m2
14:19 4.2 °C 1.9 °C 983.3 hPa SW 2.4 km/h 16.1 km/h 85% 0 mm 53 W/m2
14:24 4.1 °C 1.8 °C 983.3 hPa SW 3.5 km/h 16.1 km/h 85% 0 mm 39 W/m2
14:29 4.1 °C 1.8 °C 983.3 hPa SW 3.1 km/h 16.1 km/h 85% 0 mm 28 W/m2
14:34 4.1 °C 1.6 °C 983.3 hPa SW 2.1 km/h 16.1 km/h 84.1% 0 mm 42 W/m2
14:39 4.1 °C 1.6 °C 983.6 hPa SW 5 km/h 12.9 km/h 84% 0 mm 37 W/m2
14:44 4 °C 1.4 °C 983.6 hPa SW 7.2 km/h 19.3 km/h 83.6% 0 mm 23 W/m2
14:49 3.9 °C 1.3 °C 983.6 hPa SW 4.3 km/h 19.3 km/h 83% 0 mm 16 W/m2
14:54 3.8 °C 1.2 °C 984 hPa SW 5.6 km/h 19.3 km/h 83% 0 mm 14 W/m2
14:59 3.8 °C 1.2 °C 984 hPa SW 5.3 km/h 19.3 km/h 83% 0 mm 12 W/m2
15:04 3.7 °C 1.1 °C 984 hPa SW 3.7 km/h 19.3 km/h 83% 0 mm 12 W/m2
15:09 3.7 °C 1.2 °C 984 hPa SW 2.4 km/h 16.1 km/h 83.7% 0 mm 12 W/m2
15:14 3.7 °C 1.2 °C 984 hPa SW 3.9 km/h 16.1 km/h 84% 0 mm 11 W/m2
15:19 3.6 °C 1.2 °C 984 hPa SW 4.3 km/h 19.3 km/h 84% 0 mm 11 W/m2
15:24 3.6 °C 1.1 °C 984 hPa SW 5.6 km/h 19.3 km/h 84% 0 mm 11 W/m2
15:29 3.5 °C 1.1 °C 984 hPa SW 2.6 km/h 19.3 km/h 84% 0 mm 11 W/m2
15:34 3.4 °C 1 °C 984 hPa SW 5 km/h 19.3 km/h 84% 0 mm 12 W/m2
15:39 3.4 °C 0.9 °C 984 hPa SW 8.2 km/h 20.9 km/h 84% 0 mm 12 W/m2
15:44 3.4 °C 0.9 °C 984 hPa SW 6 km/h 20.9 km/h 84% 0 mm 14 W/m2
15:49 3.3 °C 0.9 °C 984.3 hPa SW 6 km/h 20.9 km/h 84% 0 mm 11 W/m2
15:54 3.3 °C 0.9 °C 984.3 hPa SW 6 km/h 20.9 km/h 84% 0 mm 14 W/m2
15:59 3.3 °C 0.8 °C 984.3 hPa SW 3.7 km/h 20.9 km/h 83.2% 0 mm 14 W/m2
16:00 3.3 °C 0.7 °C 984.3 hPa WSW 6.4 km/h 20.9 km/h 83% 0 mm 12 W/m2
16:09 3.3 °C 0.7 °C 984.6 hPa SW 8.4 km/h 20.9 km/h 83% 0 mm 12 W/m2
16:14 3.3 °C 0.7 °C 984.6 hPa SW 5.8 km/h 20.9 km/h 83% 0 mm 11 W/m2
16:19 3.3 °C 0.6 °C 984.6 hPa SW 3.9 km/h 20.9 km/h 82.1% 0 mm 11 W/m2
16:24 3.3 °C 0.6 °C 984.6 hPa SW 2.6 km/h 20.9 km/h 82% 0 mm 7 W/m2
16:29 3.3 °C 0.7 °C 984.6 hPa SW 3.4 km/h 20.9 km/h 83% 0 mm 5 W/m2
16:34 3.3 °C 0.7 °C 985 hPa SW 1.8 km/h 20.9 km/h 82.9% 0 mm 0 W/m2
16:39 3.3 °C 0.7 °C 984.6 hPa SW 3.1 km/h 11.3 km/h 83% 0 mm 0 W/m2
16:44 3.3 °C 0.7 °C 984.6 hPa SW 3.1 km/h 11.3 km/h 83% 0 mm 0 W/m2
16:49 3.2 °C 0.6 °C 985 hPa SW 2.6 km/h 14.5 km/h 83% 0 mm 0 W/m2
16:54 3.2 °C 0.6 °C 985 hPa SW 2.7 km/h 14.5 km/h 83% 0 mm 0 W/m2
16:59 3.2 °C 0.6 °C 985.3 hPa SW 3.5 km/h 14.5 km/h 83% 0 mm 0 W/m2
17:04 3.2 °C 0.6 °C 985.3 hPa SW 3.5 km/h 16.1 km/h 83% 0 mm 0 W/m2
17:09 3.1 °C 0.5 °C 985.3 hPa SW 1.1 km/h 16.1 km/h 83% 0 mm 0 W/m2
17:14 3.1 °C 0.5 °C 985.3 hPa SW 2.9 km/h 16.1 km/h 83.1% 0 mm 0 W/m2
17:19 3.1 °C 0.6 °C 985.3 hPa SW 3.5 km/h 16.1 km/h 84% 0 mm 0 W/m2
17:24 3 °C 0.6 °C 985.3 hPa SW 3.5 km/h 16.1 km/h 84% 0 mm 0 W/m2
17:29 2.9 °C 0.5 °C 985.3 hPa SW 3.2 km/h 16.1 km/h 84% 0 mm 0 W/m2
17:34 2.9 °C 0.5 °C 985.7 hPa SW 2.7 km/h 16.1 km/h 84% 0 mm 0 W/m2
17:39 2.9 °C 0.6 °C 985.7 hPa WSW 2.4 km/h 9.7 km/h 84.3% 0 mm 0 W/m2
17:44 2.9 °C 0.6 °C 985.7 hPa WSW 1.4 km/h 9.7 km/h 85% 0 mm 0 W/m2
17:49 2.8 °C 0.6 °C 985.7 hPa SW 2.4 km/h 11.3 km/h 85.1% 0 mm 0 W/m2
17:54 2.8 °C 0.7 °C 986 hPa SW 1.8 km/h 11.3 km/h 86% 0 mm 0 W/m2
17:59 2.6 °C 0.6 °C 986 hPa SW 1.1 km/h 11.3 km/h 86.7% 0 mm 0 W/m2
18:04 2.5 °C 0.6 °C 986 hPa SW 0.2 km/h 11.3 km/h 87.5% 0 mm 0 W/m2
18:09 2.3 °C 0.6 °C 986 hPa SW 1.6 km/h 8 km/h 88% 0 mm 0 W/m2
18:14 2.2 °C 0.6 °C 986.3 hPa SW 1.9 km/h 8 km/h 88.8% 0 mm 0 W/m2
18:19 2.1 °C 0.6 °C 986.3 hPa Calm   8 km/h 89.3% 0 mm 0 W/m2
18:24 2 °C 0.6 °C 986.3 hPa SW 0.6 km/h 8 km/h 90% 0 mm 0 W/m2
18:29 1.9 °C 0.5 °C 986.3 hPa SW 0.5 km/h 8 km/h 90% 0 mm 0 W/m2
18:34 1.9 °C 0.4 °C 986.3 hPa SW 0.2 km/h 8 km/h 90.4% 0 mm 0 W/m2
18:39 1.8 °C 0.5 °C 986.3 hPa Calm   3.2 km/h 91% 0 mm 0 W/m2
18:44 1.7 °C 0.4 °C 986.3 hPa Calm   3.2 km/h 91% 0 mm 0 W/m2
18:49 1.7 °C 0.4 °C 986.3 hPa SW 0.2 km/h 3.2 km/h 91% 0 mm 0 W/m2
18:54 1.7 °C 0.5 °C 986.3 hPa Calm   3.2 km/h 92% 0 mm 0 W/m2
18:59 1.6 °C 0.4 °C 986.3 hPa Calm   3.2 km/h 92% 0 mm 0 W/m2
19:04 1.6 °C 0.4 °C 986.3 hPa Calm   3.2 km/h 92% 0 mm 0 W/m2
19:09 1.5 °C 0.3 °C 986.3 hPa Calm   1.6 km/h 92% 0 mm 0 W/m2
19:14 1.5 °C 0.3 °C 986.7 hPa Calm   1.6 km/h 92% 0 mm 0 W/m2
19:19 1.4 °C 0.3 °C 986.7 hPa SW 0.2 km/h 1.6 km/h 92% 0 mm 0 W/m2
19:24 1.4 °C 0.4 °C 986.7 hPa SW 0.2 km/h 3.2 km/h 93% 0 mm 0 W/m2
19:29 1.4 °C 0.4 °C 986.7 hPa Calm   3.2 km/h 93% 0 mm 0 W/m2
19:34 1.4 °C 0.4 °C 986.7 hPa Calm   3.2 km/h 93% 0 mm 0 W/m2
19:39 1.4 °C 0.4 °C 987 hPa SW 0.3 km/h 3.2 km/h 93% 0 mm 0 W/m2
19:44 1.4 °C 0.4 °C 987 hPa SW 0.3 km/h 4.8 km/h 93% 0 mm 0 W/m2
19:49 1.4 °C 0.4 °C 987 hPa Calm   4.8 km/h 93% 0 mm 0 W/m2
19:54 1.4 °C 0.4 °C 987 hPa SW 0.5 km/h 4.8 km/h 93% 0 mm 0 W/m2
19:59 1.4 °C 0.4 °C 987 hPa SW 0.5 km/h 6.4 km/h 93% 0 mm 0 W/m2
20:00 1.4 °C 0.4 °C 987 hPa Calm   6.4 km/h 93% 0 mm 0 W/m2
20:09 1.4 °C 0.6 °C 987.4 hPa Calm     93.9% 0 mm 0 W/m2
20:14 1.4 °C 0.6 °C 987.4 hPa SW 0.5 km/h 4.8 km/h 94% 0 mm 0 W/m2
20:19 1.5 °C 0.6 °C 987.4 hPa Calm   4.8 km/h 94% 0 mm 0 W/m2
20:24 1.5 °C 0.7 °C 987.4 hPa SW 0.5 km/h 4.8 km/h 94% 0.25 mm 0 W/m2
20:29 1.5 °C 0.7 °C 987.7 hPa SW 0.5 km/h 4.8 km/h 94% 0.25 mm 0 W/m2
20:34 1.5 °C 0.7 °C 987.7 hPa SW 0.5 km/h 4.8 km/h 94% 0.25 mm 0 W/m2
20:39 1.6 °C 0.7 °C 987.7 hPa Calm   3.2 km/h 94% 0.25 mm 0 W/m2
20:44 1.6 °C 0.7 °C 988 hPa Calm   3.2 km/h 94% 0.25 mm 0 W/m2
20:49 1.6 °C 0.7 °C 988 hPa SW 0.5 km/h 6.4 km/h 94% 0.25 mm 0 W/m2
20:54 1.6 °C 0.7 °C 988.4 hPa SW 0.2 km/h 6.4 km/h 94% 0.25 mm 0 W/m2
20:59 1.6 °C 0.7 °C 988.4 hPa Calm   6.4 km/h 94% 0.25 mm 0 W/m2
21:04 1.6 °C 0.7 °C 988.4 hPa SW 1 km/h 6.4 km/h 94% 0.25 mm 0 W/m2
21:09 1.6 °C 0.7 °C 988.7 hPa SW 0.2 km/h 6.4 km/h 94% 0.25 mm 0 W/m2
21:14 1.6 °C 0.8 °C 988.7 hPa SW 0.2 km/h 6.4 km/h 94% 0.25 mm 0 W/m2
21:19 1.7 °C 0.8 °C 988.7 hPa SW 0.2 km/h 6.4 km/h 94% 0.25 mm 0 W/m2
21:24 1.7 °C 0.8 °C 988.7 hPa Calm   6.4 km/h 94% 0.25 mm 0 W/m2
21:29 1.7 °C 0.8 °C 988.7 hPa Calm   6.4 km/h 94% 0.25 mm 0 W/m2
21:34 1.7 °C 0.8 °C 988.7 hPa Calm   6.4 km/h 94% 0.25 mm 0 W/m2
21:39 1.7 °C 0.8 °C 989.1 hPa SW 0.5 km/h 4.8 km/h 94% 0 mm 0 W/m2
21:44 1.7 °C 0.8 °C 989.1 hPa SW 0.3 km/h 4.8 km/h 94% 0 mm 0 W/m2
21:49 1.6 °C 0.7 °C 989.4 hPa West 2.6 km/h 9.7 km/h 94% 0 mm 0 W/m2
21:54 1.5 °C 0.5 °C 989.4 hPa WNW 6.3 km/h 17.7 km/h 93.1% 0 mm 0 W/m2
21:59 1.3 °C 0.3 °C 989.4 hPa WNW 5.1 km/h 17.7 km/h 92.6% 0 mm 0 W/m2
22:04 1.3 °C 0.1 °C 989.7 hPa WNW 6.1 km/h 17.7 km/h 91.5% 0 mm 0 W/m2
22:09 1.3 °C -0.3 °C 989.7 hPa WNW 4.5 km/h 17.7 km/h 89.3% 0 mm 0 W/m2
22:14 1.3 °C -0.6 °C 989.7 hPa WNW 5 km/h 22.5 km/h 87.5% 0 mm 0 W/m2
22:19 1.3 °C -0.8 °C 989.7 hPa WNW 9 km/h 22.5 km/h 85.9% 0 mm 0 W/m2
22:24 1.3 °C -1.1 °C 990.1 hPa WNW 6.6 km/h 22.5 km/h 84.4% 0 mm 0 W/m2
22:29 1.2 °C -1.3 °C 990.1 hPa WNW 8.7 km/h 27.4 km/h 83% 0 mm 0 W/m2
22:34 1.2 °C -1.7 °C 990.4 hPa NW 4.8 km/h 27.4 km/h 81.1% 0 mm 0 W/m2
22:39 1.2 °C -1.8 °C 990.4 hPa NW 10.1 km/h 30.6 km/h 80.5% 0 mm 0 W/m2
22:44 1.2 °C -1.9 °C 990.4 hPa NW 9 km/h 30.6 km/h 79.7% 0 mm 0 W/m2
22:49 1.2 °C -2.1 °C 990.4 hPa WNW 7.1 km/h 30.6 km/h 79% 0 mm 0 W/m2
22:54 1.1 °C -2.3 °C 990.4 hPa WNW 13.2 km/h 30.6 km/h 78.2% 0 mm 0 W/m2
22:59 1.1 °C -2.3 °C 990.7 hPa WNW 10 km/h 30.6 km/h 77.8% 0 mm 0 W/m2
23:00 1.1 °C -2.5 °C 990.7 hPa WNW 9.7 km/h 30.6 km/h 77% 0 mm 0 W/m2
23:09 1.1 °C -2.5 °C 991.1 hPa WNW 10.1 km/h 20.9 km/h 77% 0 mm 0 W/m2
23:14 1.1 °C -2.7 °C 991.4 hPa WNW 9.3 km/h 25.7 km/h 76.1% 0 mm 0 W/m2
23:19 1.1 °C -2.7 °C 991.4 hPa WNW 3.7 km/h 25.7 km/h 76% 0 mm 0 W/m2
23:24 1.1 °C -2.7 °C 991.4 hPa WNW 7.4 km/h 25.7 km/h 76% 0 mm 0 W/m2
23:29 1.1 °C -2.7 °C 991.4 hPa NW 3.9 km/h 25.7 km/h 76% 0 mm 0 W/m2
23:34 1 °C -2.7 °C 991.4 hPa WNW 6.9 km/h 25.7 km/h 76% 0 mm 0 W/m2
23:39 0.9 °C -2.8 °C 991.8 hPa WNW 7.2 km/h 24.1 km/h 75.6% 0 mm 0 W/m2
23:44 0.9 °C -3.1 °C 991.8 hPa NW 13.2 km/h 29 km/h 74.4% 0 mm 0 W/m2
23:49 0.9 °C -3.5 °C 991.8 hPa NW 16.1 km/h 32.2 km/h 72.1% 0 mm 0 W/m2
23:54 0.9 °C -3.7 °C 992.1 hPa WNW 13.8 km/h 32.2 km/h 71.4% 0 mm 0 W/m2
23:59 0.9 °C -3.8 °C 992.1 hPa WNW 14.8 km/h 32.2 km/h 71% 0 mm 0 W/m2
Hartford County Weather
Compliments of Weather Underground - 4 mb